sensor_id;sensor_type;location;lat;lon;timestamp;pressure;altitude;pressure_sealevel;temperature;humidity
75089;BME280;63673;49.928;8.150;2023-02-04T00:00:56;1004.29;;;6.65;100
75089;BME280;63673;49.928;8.150;2023-02-04T00:01:58;1004.27;;;6.65;100
75089;BME280;63673;49.928;8.150;2023-02-04T00:03:00;1004.34;;;6.66;100
75089;BME280;63673;49.928;8.150;2023-02-04T00:04:02;1004.36;;;6.65;100
75089;BME280;63673;49.928;8.150;2023-02-04T00:05:03;1004.4;;;6.66;100
75089;BME280;63673;49.928;8.150;2023-02-04T00:06:05;1004.4;;;6.66;100
75089;BME280;63673;49.928;8.150;2023-02-04T00:07:07;1004.38;;;6.65;100
75089;BME280;63673;49.928;8.150;2023-02-04T00:08:09;1004.42;;;6.66;100
75089;BME280;63673;49.928;8.150;2023-02-04T00:09:10;1004.42;;;6.65;100
75089;BME280;63673;49.928;8.150;2023-02-04T00:10:12;1004.42;;;6.66;100
75089;BME280;63673;49.928;8.150;2023-02-04T00:11:14;1004.49;;;6.66;100
75089;BME280;63673;49.928;8.150;2023-02-04T00:12:16;1004.5;;;6.65;100
75089;BME280;63673;49.928;8.150;2023-02-04T00:13:17;1004.52;;;6.65;100
75089;BME280;63673;49.928;8.150;2023-02-04T00:14:19;1004.52;;;6.65;100
75089;BME280;63673;49.928;8.150;2023-02-04T00:15:21;1004.54;;;6.66;100
75089;BME280;63673;49.928;8.150;2023-02-04T00:16:22;1004.54;;;6.64;100
75089;BME280;63673;49.928;8.150;2023-02-04T00:17:24;1004.52;;;6.64;100
75089;BME280;63673;49.928;8.150;2023-02-04T00:18:26;1004.56;;;6.63;100
75089;BME280;63673;49.928;8.150;2023-02-04T00:19:28;1004.51;;;6.63;100
75089;BME280;63673;49.928;8.150;2023-02-04T00:20:29;1004.53;;;6.63;100
75089;BME280;63673;49.928;8.150;2023-02-04T00:21:31;1004.47;;;6.63;100
75089;BME280;63673;49.928;8.150;2023-02-04T00:22:33;1004.53;;;6.63;100
75089;BME280;63673;49.928;8.150;2023-02-04T00:23:35;1004.49;;;6.62;100
75089;BME280;63673;49.928;8.150;2023-02-04T00:24:37;1004.54;;;6.63;100
75089;BME280;63673;49.928;8.150;2023-02-04T00:25:38;1004.6;;;6.62;100
75089;BME280;63673;49.928;8.150;2023-02-04T00:26:40;1004.56;;;6.62;100
75089;BME280;63673;49.928;8.150;2023-02-04T00:27:42;1004.64;;;6.63;100
75089;BME280;63673;49.928;8.150;2023-02-04T00:28:43;1004.63;;;6.63;100
75089;BME280;63673;49.928;8.150;2023-02-04T00:29:45;1004.66;;;6.63;100
75089;BME280;63673;49.928;8.150;2023-02-04T00:30:47;1004.65;;;6.63;100
75089;BME280;63673;49.928;8.150;2023-02-04T00:31:48;1004.76;;;6.63;100
75089;BME280;63673;49.928;8.150;2023-02-04T00:32:50;1004.7;;;6.63;100
75089;BME280;63673;49.928;8.150;2023-02-04T00:33:52;1004.75;;;6.63;100
75089;BME280;63673;49.928;8.150;2023-02-04T00:34:54;1004.79;;;6.63;100
75089;BME280;63673;49.928;8.150;2023-02-04T00:35:55;1004.77;;;6.62;100
75089;BME280;63673;49.928;8.150;2023-02-04T00:36:57;1004.75;;;6.62;100
75089;BME280;63673;49.928;8.150;2023-02-04T00:37:59;1004.69;;;6.62;100
75089;BME280;63673;49.928;8.150;2023-02-04T00:39:01;1004.75;;;6.6;100
75089;BME280;63673;49.928;8.150;2023-02-04T00:40:02;1004.72;;;6.6;100
75089;BME280;63673;49.928;8.150;2023-02-04T00:41:04;1004.73;;;6.59;100
75089;BME280;63673;49.928;8.150;2023-02-04T00:42:06;1004.74;;;6.58;100
75089;BME280;63673;49.928;8.150;2023-02-04T00:43:08;1004.69;;;6.59;100
75089;BME280;63673;49.928;8.150;2023-02-04T00:44:09;1004.68;;;6.57;100
75089;BME280;63673;49.928;8.150;2023-02-04T00:45:11;1004.74;;;6.55;100
75089;BME280;63673;49.928;8.150;2023-02-04T00:46:13;1004.8;;;6.54;100
75089;BME280;63673;49.928;8.150;2023-02-04T00:47:14;1004.76;;;6.55;100
75089;BME280;63673;49.928;8.150;2023-02-04T00:48:16;1004.66;;;6.54;100
75089;BME280;63673;49.928;8.150;2023-02-04T00:49:18;1004.73;;;6.53;100
75089;BME280;63673;49.928;8.150;2023-02-04T00:50:20;1004.63;;;6.52;100
75089;BME280;63673;49.928;8.150;2023-02-04T00:51:21;1004.7;;;6.5;100
75089;BME280;63673;49.928;8.150;2023-02-04T00:52:23;1004.73;;;6.5;100
75089;BME280;63673;49.928;8.150;2023-02-04T00:53:25;1004.75;;;6.48;100
75089;BME280;63673;49.928;8.150;2023-02-04T00:54:27;1004.77;;;6.47;100
75089;BME280;63673;49.928;8.150;2023-02-04T00:55:28;1004.77;;;6.46;100
75089;BME280;63673;49.928;8.150;2023-02-04T00:56:30;1004.84;;;6.44;100
75089;BME280;63673;49.928;8.150;2023-02-04T00:57:32;1004.87;;;6.42;100
75089;BME280;63673;49.928;8.150;2023-02-04T00:58:34;1004.87;;;6.4;100
75089;BME280;63673;49.928;8.150;2023-02-04T00:59:35;1004.84;;;6.39;100
75089;BME280;63673;49.928;8.150;2023-02-04T01:00:37;1004.88;;;6.38;100
75089;BME280;63673;49.928;8.150;2023-02-04T01:01:39;1004.89;;;6.36;100
75089;BME280;63673;49.928;8.150;2023-02-04T01:02:40;1004.92;;;6.35;100
75089;BME280;63673;49.928;8.150;2023-02-04T01:03:42;1004.96;;;6.35;100
75089;BME280;63673;49.928;8.150;2023-02-04T01:04:44;1004.87;;;6.33;100
75089;BME280;63673;49.928;8.150;2023-02-04T01:05:46;1004.96;;;6.32;100
75089;BME280;63673;49.928;8.150;2023-02-04T01:06:47;1004.97;;;6.32;100
75089;BME280;63673;49.928;8.150;2023-02-04T01:07:49;1005.03;;;6.31;100
75089;BME280;63673;49.928;8.150;2023-02-04T01:08:51;1005.04;;;6.3;100
75089;BME280;63673;49.928;8.150;2023-02-04T01:09:53;1005;;;6.3;100
75089;BME280;63673;49.928;8.150;2023-02-04T01:10:54;1004.98;;;6.28;100
75089;BME280;63673;49.928;8.150;2023-02-04T01:11:56;1004.97;;;6.28;100
75089;BME280;63673;49.928;8.150;2023-02-04T01:12:58;1004.94;;;6.27;100
75089;BME280;63673;49.928;8.150;2023-02-04T01:14:00;1005.01;;;6.27;100
75089;BME280;63673;49.928;8.150;2023-02-04T01:15:01;1005.01;;;6.26;100
75089;BME280;63673;49.928;8.150;2023-02-04T01:16:03;1005.09;;;6.25;100
75089;BME280;63673;49.928;8.150;2023-02-04T01:17:05;1005.06;;;6.25;100
75089;BME280;63673;49.928;8.150;2023-02-04T01:18:06;1005.08;;;6.24;100
75089;BME280;63673;49.928;8.150;2023-02-04T01:19:08;1005.08;;;6.24;100
75089;BME280;63673;49.928;8.150;2023-02-04T01:20:10;1005.1;;;6.24;100
75089;BME280;63673;49.928;8.150;2023-02-04T01:21:12;1005.08;;;6.23;100
75089;BME280;63673;49.928;8.150;2023-02-04T01:22:13;1005.14;;;6.23;100
75089;BME280;63673;49.928;8.150;2023-02-04T01:23:15;1005.14;;;6.21;100
75089;BME280;63673;49.928;8.150;2023-02-04T01:24:17;1005.12;;;6.22;100
75089;BME280;63673;49.928;8.150;2023-02-04T01:25:19;1005.13;;;6.21;100
75089;BME280;63673;49.928;8.150;2023-02-04T01:26:20;1005.13;;;6.22;100
75089;BME280;63673;49.928;8.150;2023-02-04T01:27:22;1005.09;;;6.21;100
75089;BME280;63673;49.928;8.150;2023-02-04T01:28:25;1005.06;;;6.21;100
75089;BME280;63673;49.928;8.150;2023-02-04T01:29:26;1005.04;;;6.2;100
75089;BME280;63673;49.928;8.150;2023-02-04T01:29:56;1005.04;;;6.2;100
75089;BME280;63673;49.928;8.150;2023-02-04T01:30:27;1005.05;;;6.21;100
75089;BME280;63673;49.928;8.150;2023-02-04T01:30:58;1005.05;;;6.21;100
75089;BME280;63673;49.928;8.150;2023-02-04T01:31:29;1005.08;;;6.22;100
75089;BME280;63673;49.928;8.150;2023-02-04T01:32:00;1005.08;;;6.22;100
75089;BME280;63673;49.928;8.150;2023-02-04T01:32:31;1005;;;6.22;100
75089;BME280;63673;49.928;8.150;2023-02-04T01:33:02;1005;;;6.22;100
75089;BME280;63673;49.928;8.150;2023-02-04T01:33:33;1005.03;;;6.23;100
75089;BME280;63673;49.928;8.150;2023-02-04T01:34:04;1005.03;;;6.23;100
75089;BME280;63673;49.928;8.150;2023-02-04T01:34:34;1005.11;;;6.23;100
75089;BME280;63673;49.928;8.150;2023-02-04T01:35:05;1005.11;;;6.23;100
75089;BME280;63673;49.928;8.150;2023-02-04T01:35:36;1005.12;;;6.23;100
75089;BME280;63673;49.928;8.150;2023-02-04T01:36:07;1005.12;;;6.23;100
75089;BME280;63673;49.928;8.150;2023-02-04T01:36:38;1005.13;;;6.23;100
75089;BME280;63673;49.928;8.150;2023-02-04T01:37:09;1005.13;;;6.23;100
75089;BME280;63673;49.928;8.150;2023-02-04T01:37:39;1005.16;;;6.24;100
75089;BME280;63673;49.928;8.150;2023-02-04T01:38:10;1005.16;;;6.24;100
75089;BME280;63673;49.928;8.150;2023-02-04T01:38:41;1005.25;;;6.24;100
75089;BME280;63673;49.928;8.150;2023-02-04T01:39:12;1005.25;;;6.24;100
75089;BME280;63673;49.928;8.150;2023-02-04T01:39:43;1005.17;;;6.24;100
75089;BME280;63673;49.928;8.150;2023-02-04T01:40:14;1005.17;;;6.24;100
75089;BME280;63673;49.928;8.150;2023-02-04T01:40:45;1005.26;;;6.24;100
75089;BME280;63673;49.928;8.150;2023-02-04T01:41:16;1005.26;;;6.24;100
75089;BME280;63673;49.928;8.150;2023-02-04T01:41:46;1005.31;;;6.23;100
75089;BME280;63673;49.928;8.150;2023-02-04T01:42:17;1005.31;;;6.23;100
75089;BME280;63673;49.928;8.150;2023-02-04T01:42:48;1005.3;;;6.23;100
75089;BME280;63673;49.928;8.150;2023-02-04T01:43:19;1005.3;;;6.23;100
75089;BME280;63673;49.928;8.150;2023-02-04T01:43:50;1005.36;;;6.24;100
75089;BME280;63673;49.928;8.150;2023-02-04T01:44:21;1005.36;;;6.24;100
75089;BME280;63673;49.928;8.150;2023-02-04T01:44:52;1005.38;;;6.24;100
75089;BME280;63673;49.928;8.150;2023-02-04T01:45:23;1005.38;;;6.24;100
75089;BME280;63673;49.928;8.150;2023-02-04T01:45:53;1005.37;;;6.23;100
75089;BME280;63673;49.928;8.150;2023-02-04T01:46:24;1005.37;;;6.23;100
75089;BME280;63673;49.928;8.150;2023-02-04T01:46:55;1005.36;;;6.23;100
75089;BME280;63673;49.928;8.150;2023-02-04T01:47:26;1005.36;;;6.23;100
75089;BME280;63673;49.928;8.150;2023-02-04T01:47:57;1005.35;;;6.23;100
75089;BME280;63673;49.928;8.150;2023-02-04T01:48:28;1005.35;;;6.23;100
75089;BME280;63673;49.928;8.150;2023-02-04T01:48:58;1005.41;;;6.23;100
75089;BME280;63673;49.928;8.150;2023-02-04T01:49:29;1005.41;;;6.23;100
75089;BME280;63673;49.928;8.150;2023-02-04T01:50:00;1005.37;;;6.23;100
75089;BME280;63673;49.928;8.150;2023-02-04T01:50:31;1005.37;;;6.23;100
75089;BME280;63673;49.928;8.150;2023-02-04T01:51:04;1005.35;;;6.22;100
75089;BME280;63673;49.928;8.150;2023-02-04T01:51:33;1005.35;;;6.22;100
75089;BME280;63673;49.928;8.150;2023-02-04T01:52:04;1005.42;;;6.23;100
75089;BME280;63673;49.928;8.150;2023-02-04T01:52:35;1005.42;;;6.23;100
75089;BME280;63673;49.928;8.150;2023-02-04T01:53:05;1005.36;;;6.23;100
75089;BME280;63673;49.928;8.150;2023-02-04T01:53:36;1005.36;;;6.23;100
75089;BME280;63673;49.928;8.150;2023-02-04T01:54:08;1005.38;;;6.22;100
75089;BME280;63673;49.928;8.150;2023-02-04T01:54:38;1005.38;;;6.22;100
75089;BME280;63673;49.928;8.150;2023-02-04T01:55:10;1005.39;;;6.23;100
75089;BME280;63673;49.928;8.150;2023-02-04T01:55:40;1005.39;;;6.23;100
75089;BME280;63673;49.928;8.150;2023-02-04T01:56:14;1005.37;;;6.22;100
75089;BME280;63673;49.928;8.150;2023-02-04T01:56:42;1005.37;;;6.22;100
75089;BME280;63673;49.928;8.150;2023-02-04T01:57:13;1005.31;;;6.21;100
75089;BME280;63673;49.928;8.150;2023-02-04T01:57:44;1005.31;;;6.21;100
75089;BME280;63673;49.928;8.150;2023-02-04T01:58:14;1005.41;;;6.22;100
75089;BME280;63673;49.928;8.150;2023-02-04T01:58:45;1005.41;;;6.22;100
75089;BME280;63673;49.928;8.150;2023-02-04T01:59:17;1005.41;;;6.22;100
75089;BME280;63673;49.928;8.150;2023-02-04T01:59:47;1005.41;;;6.22;100
75089;BME280;63673;49.928;8.150;2023-02-04T02:00:20;1005.45;;;6.21;100
75089;BME280;63673;49.928;8.150;2023-02-04T02:00:48;1005.45;;;6.21;100
75089;BME280;63673;49.928;8.150;2023-02-04T02:01:32;1005.5;;;6.2;100
75089;BME280;63673;49.928;8.150;2023-02-04T02:01:51;1005.5;;;6.2;100
75089;BME280;63673;49.928;8.150;2023-02-04T02:02:37;1005.48;;;6.2;100
75089;BME280;63673;49.928;8.150;2023-02-04T02:02:52;1005.48;;;6.2;100
75089;BME280;63673;49.928;8.150;2023-02-04T02:03:23;1005.4;;;6.19;100
75089;BME280;63673;49.928;8.150;2023-02-04T02:03:54;1005.4;;;6.19;100
75089;BME280;63673;49.928;8.150;2023-02-04T02:04:27;1005.41;;;6.19;100
75089;BME280;63673;49.928;8.150;2023-02-04T02:04:55;1005.41;;;6.19;100
75089;BME280;63673;49.928;8.150;2023-02-04T02:05:27;1005.37;;;6.19;100
75089;BME280;63673;49.928;8.150;2023-02-04T02:05:57;1005.37;;;6.19;100
75089;BME280;63673;49.928;8.150;2023-02-04T02:06:28;1005.37;;;6.19;100
75089;BME280;63673;49.928;8.150;2023-02-04T02:06:59;1005.37;;;6.19;100
75089;BME280;63673;49.928;8.150;2023-02-04T02:07:30;1005.34;;;6.19;100
75089;BME280;63673;49.928;8.150;2023-02-04T02:08:01;1005.34;;;6.19;100
75089;BME280;63673;49.928;8.150;2023-02-04T02:08:31;1005.41;;;6.19;100
75089;BME280;63673;49.928;8.150;2023-02-04T02:09:02;1005.41;;;6.19;100
75089;BME280;63673;49.928;8.150;2023-02-04T02:09:33;1005.38;;;6.18;100
75089;BME280;63673;49.928;8.150;2023-02-04T02:10:05;1005.38;;;6.18;100
75089;BME280;63673;49.928;8.150;2023-02-04T02:10:36;1005.37;;;6.18;100
75089;BME280;63673;49.928;8.150;2023-02-04T02:11:06;1005.37;;;6.18;100
75089;BME280;63673;49.928;8.150;2023-02-04T02:11:37;1005.42;;;6.17;100
75089;BME280;63673;49.928;8.150;2023-02-04T02:12:08;1005.42;;;6.17;100
75089;BME280;63673;49.928;8.150;2023-02-04T02:12:39;1005.49;;;6.17;100
75089;BME280;63673;49.928;8.150;2023-02-04T02:13:10;1005.49;;;6.17;100
75089;BME280;63673;49.928;8.150;2023-02-04T02:13:40;1005.46;;;6.16;100
75089;BME280;63673;49.928;8.150;2023-02-04T02:14:11;1005.46;;;6.16;100
75089;BME280;63673;49.928;8.150;2023-02-04T02:14:42;1005.45;;;6.15;100
75089;BME280;63673;49.928;8.150;2023-02-04T02:15:13;1005.45;;;6.15;100
75089;BME280;63673;49.928;8.150;2023-02-04T02:15:44;1005.42;;;6.15;100
75089;BME280;63673;49.928;8.150;2023-02-04T02:16:15;1005.42;;;6.15;100
75089;BME280;63673;49.928;8.150;2023-02-04T02:16:45;1005.42;;;6.13;100
75089;BME280;63673;49.928;8.150;2023-02-04T02:17:16;1005.42;;;6.13;100
75089;BME280;63673;49.928;8.150;2023-02-04T02:17:47;1005.36;;;6.13;100
75089;BME280;63673;49.928;8.150;2023-02-04T02:18:18;1005.36;;;6.13;100
75089;BME280;63673;49.928;8.150;2023-02-04T02:18:49;1005.27;;;6.12;100
75089;BME280;63673;49.928;8.150;2023-02-04T02:19:21;1005.27;;;6.12;100
75089;BME280;63673;49.928;8.150;2023-02-04T02:19:51;1005.4;;;6.11;100
75089;BME280;63673;49.928;8.150;2023-02-04T02:20:23;1005.4;;;6.11;100
75089;BME280;63673;49.928;8.150;2023-02-04T02:20:52;1005.42;;;6.09;100
75089;BME280;63673;49.928;8.150;2023-02-04T02:21:26;1005.42;;;6.09;100
75089;BME280;63673;49.928;8.150;2023-02-04T02:21:55;1005.36;;;6.08;100
75089;BME280;63673;49.928;8.150;2023-02-04T02:22:27;1005.36;;;6.08;100
75089;BME280;63673;49.928;8.150;2023-02-04T02:22:58;1005.39;;;6.08;100
75089;BME280;63673;49.928;8.150;2023-02-04T02:23:41;1005.39;;;6.08;100
75089;BME280;63673;49.928;8.150;2023-02-04T02:23:57;1005.41;;;6.07;100
75089;BME280;63673;49.928;8.150;2023-02-04T02:24:29;1005.41;;;6.07;100
75089;BME280;63673;49.928;8.150;2023-02-04T02:24:59;1005.38;;;6.08;100
75089;BME280;63673;49.928;8.150;2023-02-04T02:25:30;1005.38;;;6.08;100
75089;BME280;63673;49.928;8.150;2023-02-04T02:26:01;1005.32;;;6.07;100
75089;BME280;63673;49.928;8.150;2023-02-04T02:26:32;1005.32;;;6.07;100
75089;BME280;63673;49.928;8.150;2023-02-04T02:27:04;1005.4;;;6.06;100
75089;BME280;63673;49.928;8.150;2023-02-04T02:27:34;1005.4;;;6.06;100
75089;BME280;63673;49.928;8.150;2023-02-04T02:28:05;1005.37;;;6.07;100
75089;BME280;63673;49.928;8.150;2023-02-04T02:28:35;1005.37;;;6.07;100
75089;BME280;63673;49.928;8.150;2023-02-04T02:29:06;1005.43;;;6.05;100
75089;BME280;63673;49.928;8.150;2023-02-04T02:29:37;1005.43;;;6.05;100
75089;BME280;63673;49.928;8.150;2023-02-04T02:30:08;1005.44;;;6.06;100
75089;BME280;63673;49.928;8.150;2023-02-04T02:30:39;1005.44;;;6.06;100
75089;BME280;63673;49.928;8.150;2023-02-04T02:31:10;1005.48;;;6.05;100
75089;BME280;63673;49.928;8.150;2023-02-04T02:31:40;1005.48;;;6.05;100
75089;BME280;63673;49.928;8.150;2023-02-04T02:32:12;1005.51;;;6.05;100
75089;BME280;63673;49.928;8.150;2023-02-04T02:32:42;1005.51;;;6.05;100
75089;BME280;63673;49.928;8.150;2023-02-04T02:33:14;1005.52;;;6.05;100
75089;BME280;63673;49.928;8.150;2023-02-04T02:33:44;1005.52;;;6.05;100
75089;BME280;63673;49.928;8.150;2023-02-04T02:34:15;1005.5;;;6.05;100
75089;BME280;63673;49.928;8.150;2023-02-04T02:34:46;1005.5;;;6.05;100
75089;BME280;63673;49.928;8.150;2023-02-04T02:35:17;1005.44;;;6.04;100
75089;BME280;63673;49.928;8.150;2023-02-04T02:35:47;1005.44;;;6.04;100
75089;BME280;63673;49.928;8.150;2023-02-04T02:36:18;1005.5;;;6.05;100
75089;BME280;63673;49.928;8.150;2023-02-04T02:36:49;1005.5;;;6.05;100
75089;BME280;63673;49.928;8.150;2023-02-04T02:37:20;1005.49;;;6.04;100
75089;BME280;63673;49.928;8.150;2023-02-04T02:37:51;1005.49;;;6.04;100
75089;BME280;63673;49.928;8.150;2023-02-04T02:38:22;1005.47;;;6.04;100
75089;BME280;63673;49.928;8.150;2023-02-04T02:38:53;1005.47;;;6.04;100
75089;BME280;63673;49.928;8.150;2023-02-04T02:39:23;1005.46;;;6.03;100
75089;BME280;63673;49.928;8.150;2023-02-04T02:39:54;1005.46;;;6.03;100
75089;BME280;63673;49.928;8.150;2023-02-04T02:40:25;1005.39;;;6.03;100
75089;BME280;63673;49.928;8.150;2023-02-04T02:40:56;1005.39;;;6.03;100
75089;BME280;63673;49.928;8.150;2023-02-04T02:41:27;1005.32;;;6.03;100
75089;BME280;63673;49.928;8.150;2023-02-04T02:41:58;1005.32;;;6.03;100
75089;BME280;63673;49.928;8.150;2023-02-04T02:42:29;1005.33;;;6.03;100
75089;BME280;63673;49.928;8.150;2023-02-04T02:43:00;1005.33;;;6.03;100
75089;BME280;63673;49.928;8.150;2023-02-04T02:43:30;1005.48;;;6.03;100
75089;BME280;63673;49.928;8.150;2023-02-04T02:44:01;1005.48;;;6.03;100
75089;BME280;63673;49.928;8.150;2023-02-04T02:44:32;1005.45;;;6.02;100
75089;BME280;63673;49.928;8.150;2023-02-04T02:45:05;1005.45;;;6.02;100
75089;BME280;63673;49.928;8.150;2023-02-04T02:45:34;1005.51;;;6.01;100
75089;BME280;63673;49.928;8.150;2023-02-04T02:46:05;1005.51;;;6.01;100
75089;BME280;63673;49.928;8.150;2023-02-04T02:46:36;1005.56;;;6.01;100
75089;BME280;63673;49.928;8.150;2023-02-04T02:47:08;1005.56;;;6.01;100
75089;BME280;63673;49.928;8.150;2023-02-04T02:47:37;1005.53;;;6.01;100
75089;BME280;63673;49.928;8.150;2023-02-04T02:48:08;1005.53;;;6.01;100
75089;BME280;63673;49.928;8.150;2023-02-04T02:48:39;1005.56;;;6.01;100
75089;BME280;63673;49.928;8.150;2023-02-04T02:49:11;1005.56;;;6.01;100
75089;BME280;63673;49.928;8.150;2023-02-04T02:49:41;1005.54;;;6;100
75089;BME280;63673;49.928;8.150;2023-02-04T02:50:14;1005.54;;;6;100
75089;BME280;63673;49.928;8.150;2023-02-04T02:50:43;1005.55;;;6;100
75089;BME280;63673;49.928;8.150;2023-02-04T02:51:13;1005.55;;;6;100
75089;BME280;63673;49.928;8.150;2023-02-04T02:51:44;1005.55;;;6;100
75089;BME280;63673;49.928;8.150;2023-02-04T02:52:15;1005.55;;;6;100
75089;BME280;63673;49.928;8.150;2023-02-04T02:52:46;1005.59;;;6.01;100
75089;BME280;63673;49.928;8.150;2023-02-04T02:53:18;1005.59;;;6.01;100
75089;BME280;63673;49.928;8.150;2023-02-04T02:53:48;1005.62;;;6;100
75089;BME280;63673;49.928;8.150;2023-02-04T02:54:20;1005.62;;;6;100
75089;BME280;63673;49.928;8.150;2023-02-04T02:54:49;1005.6;;;5.99;100
75089;BME280;63673;49.928;8.150;2023-02-04T02:55:21;1005.6;;;5.99;100
75089;BME280;63673;49.928;8.150;2023-02-04T02:55:51;1005.64;;;6;100
75089;BME280;63673;49.928;8.150;2023-02-04T02:56:22;1005.64;;;6;100
75089;BME280;63673;49.928;8.150;2023-02-04T02:56:53;1005.62;;;6;100
75089;BME280;63673;49.928;8.150;2023-02-04T02:57:24;1005.62;;;6;100
75089;BME280;63673;49.928;8.150;2023-02-04T02:57:55;1005.67;;;6;100
75089;BME280;63673;49.928;8.150;2023-02-04T02:58:27;1005.67;;;6;100
75089;BME280;63673;49.928;8.150;2023-02-04T02:58:57;1005.69;;;6;100
75089;BME280;63673;49.928;8.150;2023-02-04T02:59:27;1005.69;;;6;100
75089;BME280;63673;49.928;8.150;2023-02-04T02:59:58;1005.71;;;6;100
75089;BME280;63673;49.928;8.150;2023-02-04T03:00:29;1005.71;;;6;100
75089;BME280;63673;49.928;8.150;2023-02-04T03:01:00;1005.68;;;6;100
75089;BME280;63673;49.928;8.150;2023-02-04T03:01:31;1005.68;;;6;100
75089;BME280;63673;49.928;8.150;2023-02-04T03:02:02;1005.67;;;5.99;100
75089;BME280;63673;49.928;8.150;2023-02-04T03:02:32;1005.67;;;5.99;100
75089;BME280;63673;49.928;8.150;2023-02-04T03:03:04;1005.64;;;5.99;100
75089;BME280;63673;49.928;8.150;2023-02-04T03:03:35;1005.64;;;5.99;100
75089;BME280;63673;49.928;8.150;2023-02-04T03:04:05;1005.65;;;5.97;100
75089;BME280;63673;49.928;8.150;2023-02-04T03:04:37;1005.65;;;5.97;100
75089;BME280;63673;49.928;8.150;2023-02-04T03:05:07;1005.69;;;5.97;100
75089;BME280;63673;49.928;8.150;2023-02-04T03:05:40;1005.69;;;5.97;100
75089;BME280;63673;49.928;8.150;2023-02-04T03:06:09;1005.69;;;5.96;100
75089;BME280;63673;49.928;8.150;2023-02-04T03:06:39;1005.69;;;5.96;100
75089;BME280;63673;49.928;8.150;2023-02-04T03:07:10;1005.72;;;5.94;100
75089;BME280;63673;49.928;8.150;2023-02-04T03:07:41;1005.72;;;5.94;100
75089;BME280;63673;49.928;8.150;2023-02-04T03:08:12;1005.81;;;5.93;100
75089;BME280;63673;49.928;8.150;2023-02-04T03:08:43;1005.81;;;5.93;100
75089;BME280;63673;49.928;8.150;2023-02-04T03:09:14;1005.79;;;5.9;100
75089;BME280;63673;49.928;8.150;2023-02-04T03:09:45;1005.79;;;5.9;100
75089;BME280;63673;49.928;8.150;2023-02-04T03:10:16;1005.74;;;5.89;100
75089;BME280;63673;49.928;8.150;2023-02-04T03:10:46;1005.74;;;5.89;100
75089;BME280;63673;49.928;8.150;2023-02-04T03:11:17;1005.68;;;5.88;100
75089;BME280;63673;49.928;8.150;2023-02-04T03:11:48;1005.68;;;5.88;100
75089;BME280;63673;49.928;8.150;2023-02-04T03:12:19;1005.75;;;5.87;100
75089;BME280;63673;49.928;8.150;2023-02-04T03:12:50;1005.75;;;5.87;100
75089;BME280;63673;49.928;8.150;2023-02-04T03:13:21;1005.74;;;5.87;100
75089;BME280;63673;49.928;8.150;2023-02-04T03:13:52;1005.74;;;5.87;100
75089;BME280;63673;49.928;8.150;2023-02-04T03:14:23;1005.72;;;5.87;100
75089;BME280;63673;49.928;8.150;2023-02-04T03:14:53;1005.72;;;5.87;100
75089;BME280;63673;49.928;8.150;2023-02-04T03:15:24;1005.83;;;5.86;100
75089;BME280;63673;49.928;8.150;2023-02-04T03:15:55;1005.83;;;5.86;100
75089;BME280;63673;49.928;8.150;2023-02-04T03:16:26;1005.83;;;5.86;100
75089;BME280;63673;49.928;8.150;2023-02-04T03:16:57;1005.83;;;5.86;100
75089;BME280;63673;49.928;8.150;2023-02-04T03:17:28;1005.85;;;5.85;100
75089;BME280;63673;49.928;8.150;2023-02-04T03:17:58;1005.85;;;5.85;100
75089;BME280;63673;49.928;8.150;2023-02-04T03:18:30;1005.89;;;5.84;100
75089;BME280;63673;49.928;8.150;2023-02-04T03:19:00;1005.89;;;5.84;100
75089;BME280;63673;49.928;8.150;2023-02-04T03:19:31;1005.88;;;5.83;100
75089;BME280;63673;49.928;8.150;2023-02-04T03:20:02;1005.88;;;5.83;100
75089;BME280;63673;49.928;8.150;2023-02-04T03:20:33;1005.95;;;5.83;100
75089;BME280;63673;49.928;8.150;2023-02-04T03:21:04;1005.95;;;5.83;100
75089;BME280;63673;49.928;8.150;2023-02-04T03:21:35;1006.02;;;5.83;100
75089;BME280;63673;49.928;8.150;2023-02-04T03:22:06;1006.02;;;5.83;100
75089;BME280;63673;49.928;8.150;2023-02-04T03:22:36;1006.08;;;5.81;100
75089;BME280;63673;49.928;8.150;2023-02-04T03:23:07;1006.08;;;5.81;100
75089;BME280;63673;49.928;8.150;2023-02-04T03:23:38;1006.05;;;5.8;100
75089;BME280;63673;49.928;8.150;2023-02-04T03:24:09;1006.05;;;5.8;100
75089;BME280;63673;49.928;8.150;2023-02-04T03:24:40;1006.1;;;5.78;100
75089;BME280;63673;49.928;8.150;2023-02-04T03:25:11;1006.1;;;5.78;100
75089;BME280;63673;49.928;8.150;2023-02-04T03:25:42;1006.14;;;5.78;100
75089;BME280;63673;49.928;8.150;2023-02-04T03:26:12;1006.14;;;5.78;100
75089;BME280;63673;49.928;8.150;2023-02-04T03:26:43;1006.08;;;5.76;100
75089;BME280;63673;49.928;8.150;2023-02-04T03:27:14;1006.08;;;5.76;100
75089;BME280;63673;49.928;8.150;2023-02-04T03:27:45;1006.09;;;5.75;100
75089;BME280;63673;49.928;8.150;2023-02-04T03:28:16;1006.09;;;5.75;100
75089;BME280;63673;49.928;8.150;2023-02-04T03:28:47;1006.09;;;5.74;100
75089;BME280;63673;49.928;8.150;2023-02-04T03:29:18;1006.09;;;5.74;100
75089;BME280;63673;49.928;8.150;2023-02-04T03:29:49;1006.09;;;5.73;100
75089;BME280;63673;49.928;8.150;2023-02-04T03:30:20;1006.09;;;5.73;100
75089;BME280;63673;49.928;8.150;2023-02-04T03:30:50;1006.15;;;5.71;100
75089;BME280;63673;49.928;8.150;2023-02-04T03:31:21;1006.15;;;5.71;100
75089;BME280;63673;49.928;8.150;2023-02-04T03:31:52;1006.11;;;5.7;100
75089;BME280;63673;49.928;8.150;2023-02-04T03:32:23;1006.11;;;5.7;100
75089;BME280;63673;49.928;8.150;2023-02-04T03:32:54;1006.14;;;5.69;100
75089;BME280;63673;49.928;8.150;2023-02-04T03:33:25;1006.14;;;5.69;100
75089;BME280;63673;49.928;8.150;2023-02-04T03:33:55;1006.11;;;5.68;100
75089;BME280;63673;49.928;8.150;2023-02-04T03:34:26;1006.11;;;5.68;100
75089;BME280;63673;49.928;8.150;2023-02-04T03:34:57;1006.19;;;5.66;100
75089;BME280;63673;49.928;8.150;2023-02-04T03:35:28;1006.19;;;5.66;100
75089;BME280;63673;49.928;8.150;2023-02-04T03:35:59;1006.2;;;5.66;100
75089;BME280;63673;49.928;8.150;2023-02-04T03:36:30;1006.2;;;5.66;100
75089;BME280;63673;49.928;8.150;2023-02-04T03:37:01;1006.19;;;5.64;100
75089;BME280;63673;49.928;8.150;2023-02-04T03:37:31;1006.19;;;5.64;100
75089;BME280;63673;49.928;8.150;2023-02-04T03:38:02;1006.14;;;5.62;100
75089;BME280;63673;49.928;8.150;2023-02-04T03:38:33;1006.14;;;5.62;100